createdAt,value
2022-12-15T00:02:19.471Z,100906.72
2022-12-15T00:05:05.074Z,100900.56
2022-12-15T00:07:51.238Z,100889.38
2022-12-15T00:10:39.338Z,100900.38
2022-12-15T00:13:31.700Z,100903.16
2022-12-15T00:16:17.222Z,100897.97
2022-12-15T00:19:02.811Z,100902.34
2022-12-15T00:21:47.809Z,100903.34
2022-12-15T00:24:32.856Z,100907.91
2022-12-15T00:27:18.102Z,100911.13
2022-12-15T00:30:03.077Z,100910.50
2022-12-15T00:32:48.261Z,100912.63
2022-12-15T00:35:33.358Z,100914.59
2022-12-15T00:38:29.043Z,100909.78
2022-12-15T00:40:59.854Z,100909.59
2022-12-15T00:43:29.117Z,100908.00
2022-12-15T00:46:14.721Z,100920.97
2022-12-15T00:48:42.129Z,100922.75
2022-12-15T00:51:08.668Z,100930.34
2022-12-15T00:53:54.052Z,100927.94
2022-12-15T00:56:39.405Z,100934.91
2022-12-15T00:59:24.567Z,100924.09
2022-12-15T01:02:09.972Z,100919.72
2022-12-15T01:04:54.843Z,100926.69
2022-12-15T01:07:39.751Z,100928.47
2022-12-15T01:10:25.471Z,100930.44
2022-12-15T01:13:10.653Z,100934.81
2022-12-15T01:15:56.359Z,100931.81
2022-12-15T01:18:42.530Z,100933.78
2022-12-15T01:21:10.295Z,100934.75
2022-12-15T01:23:38.368Z,100940.72
2022-12-15T01:26:06.905Z,100947.53
2022-12-15T01:28:33.648Z,100947.06
2022-12-15T01:31:00.645Z,100947.25
2022-12-15T01:33:27.477Z,100952.25
2022-12-15T01:36:01.504Z,100964.25
2022-12-15T01:38:29.278Z,100958.25
2022-12-15T01:41:00.746Z,100958.44
2022-12-15T01:43:32.895Z,100951.00
2022-12-15T01:46:04.469Z,100953.59
2022-12-15T01:48:31.027Z,100961.53
2022-12-15T01:51:10.283Z,100960.91
2022-12-15T01:53:45.881Z,100960.56
2022-12-15T01:56:16.972Z,100969.16
2022-12-15T01:58:46.349Z,100974.34
2022-12-15T02:01:13.136Z,100970.16
2022-12-15T02:03:41.290Z,100983.63
2022-12-15T02:06:09.354Z,100977.00
2022-12-15T02:08:36.989Z,100979.59
2022-12-15T02:11:12.539Z,100978.19
2022-12-15T02:13:56.580Z,100971.03
2022-12-15T02:16:26.034Z,100974.41
2022-12-15T02:18:52.585Z,100965.66
2022-12-15T02:21:40.944Z,100974.88
2022-12-15T02:24:32.976Z,100976.66
2022-12-15T02:27:21.076Z,100976.66
2022-12-15T02:30:17.356Z,100970.66
2022-12-15T02:33:12.209Z,100973.25
2022-12-15T02:35:53.724Z,100973.44
2022-12-15T02:38:32.447Z,100971.03
2022-12-15T02:41:00.823Z,100967.81
2022-12-15T02:43:30.269Z,100975.41
2022-12-15T02:46:07.157Z,100973.78
2022-12-15T02:48:56.961Z,100976.75
2022-12-15T02:51:40.613Z,100973.69
2022-12-15T02:54:22.159Z,100974.03
2022-12-15T02:57:27.367Z,100985.22
2022-12-15T03:00:02.059Z,100985.41
2022-12-15T03:02:32.638Z,100981.22
2022-12-15T03:04:59.657Z,100987.34
2022-12-15T03:07:28.095Z,100986.72
2022-12-15T03:09:57.605Z,100995.81
2022-12-15T03:12:24.281Z,101007.53
2022-12-15T03:14:51.301Z,101003.50
2022-12-15T03:17:18.122Z,101004.31
2022-12-15T03:19:44.676Z,101005.94
2022-12-15T03:22:11.562Z,101007.53
2022-12-15T03:24:38.041Z,101001.72
2022-12-15T03:27:05.422Z,101007.53
2022-12-15T03:29:31.993Z,101007.69
2022-12-15T03:31:58.755Z,101004.47
2022-12-15T03:34:26.042Z,101006.88
2022-12-15T03:36:52.595Z,100998.94
2022-12-15T03:39:19.191Z,101003.78
2022-12-15T03:41:45.725Z,101014.34
2022-12-15T03:44:16.521Z,101022.91
2022-12-15T03:46:43.172Z,101016.91
2022-12-15T03:49:09.764Z,101007.34
2022-12-15T03:51:36.288Z,101015.13
2022-12-15T03:54:02.793Z,101012.72
2022-12-15T03:56:29.335Z,101012.53
2022-12-15T03:58:56.059Z,101014.34
2022-12-15T04:01:30.273Z,101016.72
2022-12-15T04:04:00.915Z,101006.56
2022-12-15T04:06:29.366Z,101017.88
2022-12-15T04:08:55.915Z,101017.25
2022-12-15T04:11:22.557Z,101024.22
2022-12-15T04:13:49.223Z,101016.00
2022-12-15T04:16:19.784Z,101014.19
2022-12-15T04:18:47.271Z,101018.41
2022-12-15T04:21:13.711Z,101022.44
2022-12-15T04:23:58.603Z,101014.66
2022-12-15T04:26:43.737Z,101026.47
2022-12-15T04:29:29.139Z,101021.91
2022-12-15T04:32:14.204Z,101020.94
2022-12-15T04:34:59.453Z,101019.78
2022-12-15T04:37:44.428Z,101028.03
2022-12-15T04:40:29.727Z,101023.47
2022-12-15T04:43:14.943Z,101021.69
2022-12-15T04:46:00.076Z,101022.47
2022-12-15T04:48:45.279Z,101025.53
2022-12-15T04:51:30.213Z,101026.16
2022-12-15T04:54:15.150Z,101019.19
2022-12-15T04:57:00.206Z,101021.59
2022-12-15T04:59:45.354Z,101027.59
2022-12-15T05:02:30.814Z,101030.97
2022-12-15T05:05:16.031Z,101033.56
2022-12-15T05:08:01.281Z,101031.97
2022-12-15T05:10:46.159Z,101023.03
2022-12-15T05:13:31.879Z,101031.44
2022-12-15T05:16:17.468Z,101032.44
2022-12-15T05:19:02.562Z,101027.06
2022-12-15T05:21:47.660Z,101028.22
2022-12-15T05:24:32.734Z,101033.41
2022-12-15T05:27:18.227Z,101035.19
2022-12-15T05:30:03.249Z,101036.00
2022-12-15T05:32:32.630Z,101037.78
2022-12-15T05:34:59.116Z,101042.34
2022-12-15T05:37:25.663Z,101040.09
2022-12-15T05:39:52.171Z,101037.50
2022-12-15T05:42:18.747Z,101039.28
2022-12-15T05:44:45.310Z,101043.69
2022-12-15T05:47:12.594Z,101036.69
2022-12-15T05:49:39.255Z,101042.25
2022-12-15T05:52:06.504Z,101040.63
2022-12-15T05:54:33.053Z,101050.19
2022-12-15T05:56:59.678Z,101057.31
2022-12-15T05:59:26.460Z,101065.28
2022-12-15T06:01:53.193Z,101066.59
2022-12-15T06:04:19.756Z,101074.38
2022-12-15T06:06:46.458Z,101074.19
2022-12-15T06:09:13.145Z,101078.41
2022-12-15T06:11:39.676Z,101075.84
2022-12-15T06:14:06.478Z,101080.03
2022-12-15T06:16:33.533Z,101076.63
2022-12-15T06:19:02.123Z,101074.03
2022-12-15T06:21:37.786Z,101073.03
2022-12-15T06:24:05.782Z,101075.00
2022-12-15T06:26:38.411Z,101078.06
2022-12-15T06:29:07.656Z,101071.91
2022-12-15T06:31:35.480Z,101076.25
2022-12-15T06:34:06.652Z,101076.25
2022-12-15T06:36:35.873Z,101078.06
2022-12-15T06:39:05.012Z,101084.03
2022-12-15T06:41:32.725Z,101083.25
2022-12-15T06:44:00.380Z,101079.69
2022-12-15T06:46:29.000Z,101082.28
2022-12-15T06:48:55.844Z,101093.25
2022-12-15T06:51:23.002Z,101089.41
2022-12-15T06:53:50.844Z,101081.13
2022-12-15T06:56:21.828Z,101091.66
2022-12-15T06:58:52.692Z,101088.91
2022-12-15T07:01:20.830Z,101087.91
2022-12-15T07:03:49.176Z,101092.28
2022-12-15T07:06:16.852Z,101086.31
2022-12-15T07:08:45.144Z,101086.09
2022-12-15T07:11:12.729Z,101089.53
2022-12-15T07:13:40.250Z,101086.31
2022-12-15T07:16:08.257Z,101087.09
2022-12-15T07:18:35.082Z,101087.09
2022-12-15T07:21:07.311Z,101102.50
2022-12-15T07:23:53.358Z,101099.59
2022-12-15T07:26:21.146Z,101099.44
2022-12-15T07:28:47.905Z,101100.59
2022-12-15T07:31:15.653Z,101107.56
2022-12-15T07:33:42.686Z,101117.09
2022-12-15T07:36:09.513Z,101116.31
2022-12-15T07:38:36.696Z,101110.59
2022-12-15T07:41:05.621Z,101105.72
2022-12-15T07:43:33.070Z,101109.03
2022-12-15T07:46:00.447Z,101114.97
2022-12-15T07:48:27.625Z,101113.31
2022-12-15T07:51:04.926Z,101117.59
2022-12-15T07:53:35.503Z,101107.78
2022-12-15T07:56:09.109Z,101109.50
2022-12-15T07:58:36.967Z,101116.41
2022-12-15T08:01:07.540Z,101121.50
2022-12-15T08:03:36.193Z,101121.63
2022-12-15T08:06:05.492Z,101119.91
2022-12-15T08:08:33.116Z,101136.41
2022-12-15T08:11:04.698Z,101136.66
2022-12-15T08:14:01.388Z,101130.59
2022-12-15T08:16:17.872Z,101137.47
2022-12-15T08:18:44.420Z,101141.13
2022-12-15T08:21:11.930Z,101141.41
2022-12-15T08:23:40.333Z,101138.09
2022-12-15T08:26:10.889Z,101135.94
2022-12-15T08:28:39.251Z,101129.03
2022-12-15T08:31:11.463Z,101139.50
2022-12-15T08:33:38.669Z,101134.56
2022-12-15T08:36:09.617Z,101132.06
2022-12-15T08:38:38.810Z,101141.69
2022-12-15T08:41:11.695Z,101144.56
2022-12-15T08:43:44.015Z,101156.66
2022-12-15T08:46:15.455Z,101152.88
2022-12-15T08:48:42.216Z,101157.50
2022-12-15T08:51:10.168Z,101162.16
2022-12-15T08:53:36.992Z,101152.81
2022-12-15T08:56:05.856Z,101159.28
2022-12-15T08:58:32.745Z,101160.34
2022-12-15T09:01:06.789Z,101159.78
2022-12-15T09:03:35.895Z,101169.44
2022-12-15T09:06:08.185Z,101165.91
2022-12-15T09:08:35.546Z,101173.16
2022-12-15T09:11:03.063Z,101156.19
2022-12-15T09:13:30.192Z,101151.59
2022-12-15T09:16:14.252Z,101147.44
2022-12-15T09:18:46.776Z,101152.72
2022-12-15T09:21:15.017Z,101155.53
2022-12-15T09:23:42.360Z,101158.19
2022-12-15T09:26:12.356Z,101165.06
2022-12-15T09:28:38.957Z,101161.88
2022-12-15T09:31:09.767Z,101168.50
2022-12-15T09:33:38.265Z,101165.38
2022-12-15T09:36:18.995Z,101174.81
2022-12-15T09:38:45.778Z,101167.06
2022-12-15T09:41:17.724Z,101169.88
2022-12-15T09:43:47.335Z,101177.56
2022-12-15T09:46:27.688Z,101182.81
2022-12-15T09:48:58.435Z,101181.44
2022-12-15T09:51:37.128Z,101178.84
2022-12-15T09:54:04.912Z,101192.75
2022-12-15T09:56:42.475Z,101195.38
2022-12-15T09:59:41.614Z,101191.81
2022-12-15T10:02:25.192Z,101193.84
2022-12-15T10:05:00.039Z,101198.09
2022-12-15T10:07:39.684Z,101200.72
2022-12-15T10:10:43.443Z,101203.34
2022-12-15T10:13:19.698Z,101207.78
2022-12-15T10:15:56.892Z,101212.22
2022-12-15T10:18:40.256Z,101207.81
2022-12-15T10:21:14.177Z,101209.66
2022-12-15T10:23:40.969Z,101206.06
2022-12-15T10:26:20.934Z,101201.28
2022-12-15T10:29:09.335Z,101206.50
2022-12-15T10:32:15.229Z,101207.53
2022-12-15T10:34:43.236Z,101212.16
2022-12-15T10:37:16.422Z,101204.50
2022-12-15T10:39:45.196Z,101201.53
2022-12-15T10:42:24.183Z,101204.94
2022-12-15T10:45:35.748Z,101204.13
2022-12-15T10:48:20.073Z,101204.56
2022-12-15T10:50:47.327Z,101207.16
2022-12-15T10:53:41.591Z,101207.16
2022-12-15T10:56:10.653Z,101200.13
2022-12-15T10:58:50.944Z,101203.56
2022-12-15T11:01:27.521Z,101201.31
2022-12-15T11:03:55.327Z,101190.25
2022-12-15T11:06:28.466Z,101185.22
2022-12-15T11:09:07.744Z,101186.19
2022-12-15T11:12:03.883Z,101181.72
2022-12-15T11:14:48.562Z,101183.72
2022-12-15T11:17:21.101Z,101182.28
2022-12-15T11:20:02.208Z,101182.88
2022-12-15T11:22:56.675Z,101183.84
2022-12-15T11:25:37.709Z,101174.00
2022-12-15T11:28:14.442Z,101185.44
2022-12-15T11:31:04.125Z,101181.16
2022-12-15T11:33:31.569Z,101186.16
2022-12-15T11:36:17.077Z,101180.28
2022-12-15T11:38:52.978Z,101180.09
2022-12-15T11:41:30.104Z,101181.91
2022-12-15T11:44:20.193Z,101180.69
2022-12-15T11:47:03.408Z,101181.47
2022-12-15T11:49:42.947Z,101175.00
2022-12-15T11:52:22.084Z,101181.44
2022-12-15T11:54:55.655Z,101178.22
2022-12-15T11:57:45.406Z,101178.97
2022-12-15T12:00:22.551Z,101175.16
2022-12-15T12:02:55.744Z,101183.53
2022-12-15T12:05:34.798Z,101183.69
2022-12-15T12:08:13.360Z,101183.44
2022-12-15T12:10:55.244Z,101191.63
2022-12-15T12:13:26.854Z,101191.22
2022-12-15T12:16:20.983Z,101180.09
2022-12-15T12:19:11.794Z,101176.81
2022-12-15T12:21:51.142Z,101168.09
2022-12-15T12:24:48.883Z,101172.28
2022-12-15T12:27:24.787Z,101169.22
2022-12-15T12:29:58.163Z,101161.75
2022-12-15T12:32:34.024Z,101158.47
2022-12-15T12:35:33.624Z,101150.16
2022-12-15T12:41:02.962Z,101158.25
2022-12-15T12:43:35.442Z,101154.84
2022-12-15T12:46:10.617Z,101157.47
2022-12-15T12:48:56.354Z,101154.47
2022-12-15T12:51:33.402Z,101159.13
2022-12-15T12:54:01.060Z,101153.09
2022-12-15T12:56:32.909Z,101142.38
2022-12-15T12:58:59.857Z,101133.50
2022-12-15T13:01:29.255Z,101132.06
2022-12-15T13:04:34.329Z,101134.22
2022-12-15T13:07:08.829Z,101130.59
2022-12-15T13:09:42.688Z,101121.69
2022-12-15T13:12:52.911Z,101126.94
2022-12-15T13:15:29.219Z,101120.69
2022-12-15T13:18:07.285Z,101129.63
2022-12-15T13:20:36.974Z,101122.16
2022-12-15T13:23:21.671Z,101117.91
2022-12-15T13:25:55.478Z,101107.66
2022-12-15T13:28:44.520Z,101113.47
2022-12-15T13:31:19.068Z,101108.47
2022-12-15T13:33:52.664Z,101107.22
2022-12-15T13:36:37.577Z,101104.59
2022-12-15T13:39:11.427Z,101108.69
2022-12-15T13:42:00.232Z,101105.84
2022-12-15T13:44:44.401Z,101108.47
2022-12-15T13:47:29.032Z,101105.59
2022-12-15T13:50:02.670Z,101111.44
2022-12-15T13:55:40.425Z,101110.13
2022-12-15T13:58:15.952Z,101110.72
2022-12-15T14:00:52.683Z,101107.44
2022-12-15T14:03:21.774Z,101100.75
2022-12-15T14:05:57.301Z,101109.34
2022-12-15T14:08:30.250Z,101108.09
2022-12-15T14:11:16.676Z,101100.81
2022-12-15T14:13:54.078Z,101100.66
2022-12-15T14:16:24.048Z,101100.91
2022-12-15T14:19:08.933Z,101100.44
2022-12-15T14:21:35.763Z,101088.38
2022-12-15T14:24:37.611Z,101092.44
2022-12-15T14:27:00.958Z,101093.63
2022-12-15T14:29:29.132Z,101096.09
2022-12-15T14:31:58.166Z,101089.59
2022-12-15T14:34:39.486Z,101079.09
2022-12-15T14:37:12.378Z,101076.72
2022-12-15T14:39:46.812Z,101078.19
2022-12-15T14:42:23.295Z,101078.75
2022-12-15T14:44:54.912Z,101078.41
2022-12-15T14:47:32.679Z,101086.69
2022-12-15T14:50:02.067Z,101085.31
2022-12-15T14:52:34.322Z,101082.47
2022-12-15T14:55:03.401Z,101080.28
2022-12-15T14:57:52.695Z,101071.84
2022-12-15T15:00:32.251Z,101074.09
2022-12-15T15:03:12.826Z,101152.44
2022-12-15T15:06:03.931Z,101074.97
2022-12-15T15:08:36.381Z,101077.59
2022-12-15T15:11:29.671Z,101077.22
2022-12-15T15:14:00.295Z,101073.22
2022-12-15T15:16:27.607Z,101078.09
2022-12-15T15:18:56.234Z,101070.44
2022-12-15T15:21:28.540Z,101064.03
2022-12-15T15:24:00.425Z,101061.41
2022-12-15T15:26:31.334Z,101064.28
2022-12-15T15:29:03.561Z,101057.63
2022-12-15T15:31:41.425Z,101065.72
2022-12-15T15:34:08.842Z,101058.28
2022-12-15T15:36:38.192Z,101060.13
2022-12-15T15:39:12.850Z,101060.53
2022-12-15T15:41:39.650Z,101056.53
2022-12-15T15:44:12.719Z,101064.84
2022-12-15T15:46:47.313Z,101062.44
2022-12-15T15:49:18.123Z,101068.31
2022-12-15T15:51:45.127Z,101065.34
2022-12-15T15:54:16.406Z,101058.13
2022-12-15T15:56:43.067Z,101064.03
2022-12-15T15:59:12.185Z,101068.66
2022-12-15T16:01:38.951Z,101081.75
2022-12-15T16:04:08.479Z,101084.59
2022-12-15T16:06:35.902Z,101085.00
2022-12-15T16:09:02.600Z,101084.22
2022-12-15T16:11:32.834Z,101080.22
2022-12-15T16:14:01.630Z,101081.44
2022-12-15T16:16:33.019Z,101078.25
2022-12-15T16:18:59.969Z,101086.75
2022-12-15T16:21:28.788Z,101088.53
2022-12-15T16:23:57.331Z,101083.53
2022-12-15T16:26:31.120Z,101081.91
2022-12-15T16:28:58.692Z,101081.53
2022-12-15T16:31:35.456Z,101080.94
2022-12-15T16:34:05.641Z,101080.34
2022-12-15T16:36:35.238Z,101075.94
2022-12-15T16:39:02.035Z,101085.59
2022-12-15T16:41:28.687Z,101078.97
2022-12-15T16:43:55.366Z,101088.66
2022-12-15T16:46:21.988Z,101076.78
2022-12-15T16:48:48.819Z,101073.59
2022-12-15T16:51:34.125Z,101075.63
2022-12-15T16:54:00.930Z,101083.66
2022-12-15T16:56:27.663Z,101082.88
2022-12-15T16:59:15.465Z,101080.25
2022-12-15T17:01:41.603Z,101088.31
2022-12-15T17:04:08.504Z,101082.28
2022-12-15T17:06:35.266Z,101086.09
2022-12-15T17:09:02.536Z,101085.31
2022-12-15T17:11:29.359Z,101083.13
2022-12-15T17:13:57.767Z,101083.53
2022-12-15T17:16:26.346Z,101087.19
2022-12-15T17:18:53.574Z,101086.97
2022-12-15T17:21:26.618Z,101083.19
2022-12-15T17:23:57.749Z,101084.63
2022-12-15T17:26:29.678Z,101092.88
2022-12-15T17:29:00.448Z,101098.09
2022-12-15T17:31:34.444Z,101092.66
2022-12-15T17:34:22.848Z,101091.03
2022-12-15T17:36:49.545Z,101092.66
2022-12-15T17:39:20.779Z,101099.47
2022-12-15T17:42:05.050Z,101095.06
2022-12-15T17:44:37.323Z,101094.47
2022-12-15T17:47:08.279Z,101095.28
2022-12-15T17:49:37.722Z,101108.34
2022-12-15T17:52:19.467Z,101104.56
2022-12-15T17:54:46.767Z,101109.00
2022-12-15T17:57:13.568Z,101111.38
2022-12-15T17:59:40.355Z,101105.75
2022-12-15T18:02:11.229Z,101101.31
2022-12-15T18:04:37.993Z,101104.72
2022-12-15T18:07:04.978Z,101113.16
2022-12-15T18:09:31.577Z,101112.94
2022-12-15T18:11:58.284Z,101114.13
2022-12-15T18:14:24.954Z,101123.59
2022-12-15T18:16:51.580Z,101123.38
2022-12-15T18:19:18.388Z,101122.38
2022-12-15T18:21:47.506Z,101125.19
2022-12-15T18:24:17.309Z,101123.16
2022-12-15T18:26:44.441Z,101128.59
2022-12-15T18:29:18.230Z,101130.81
2022-12-15T18:31:48.526Z,101133.78
2022-12-15T18:34:21.343Z,101134.38
2022-12-15T18:36:48.226Z,101133.59
2022-12-15T18:39:20.436Z,101128.94
2022-12-15T18:41:48.304Z,101133.97
2022-12-15T18:44:22.951Z,101130.78
2022-12-15T18:46:49.628Z,101130.56
2022-12-15T18:49:18.075Z,101126.53
2022-12-15T18:51:46.497Z,101132.19
2022-12-15T18:54:24.402Z,101133.00
2022-12-15T18:56:51.599Z,101130.97
2022-12-15T18:59:18.940Z,101137.22
2022-12-15T19:01:47.978Z,101135.81
2022-12-15T19:04:15.335Z,101145.13
2022-12-15T19:06:42.620Z,101146.72
2022-12-15T19:09:17.472Z,101144.69
2022-12-15T19:12:06.024Z,101153.19
2022-12-15T19:14:41.641Z,101158.22
2022-12-15T19:17:34.390Z,101159.78
2022-12-15T19:20:19.966Z,101171.28
2022-12-15T19:22:48.510Z,101171.50
2022-12-15T19:25:26.491Z,101172.28
2022-12-15T19:27:59.325Z,101177.31
2022-12-15T19:30:29.048Z,101176.09
2022-12-15T19:32:55.975Z,101178.50
2022-12-15T19:35:22.976Z,101175.66
2022-12-15T19:37:50.116Z,101177.28
2022-12-15T19:40:22.262Z,101163.59
2022-12-15T19:42:49.500Z,101170.41
2022-12-15T19:45:18.458Z,101166.59
2022-12-15T19:47:45.027Z,101166.59
2022-12-15T19:50:20.421Z,101168.19
2022-12-15T19:52:50.239Z,101166.38
2022-12-15T19:55:18.395Z,101169.00
2022-12-15T19:57:45.072Z,101173.88
2022-12-15T20:00:24.850Z,101172.44
2022-12-15T20:02:55.009Z,101179.94
2022-12-15T20:05:24.176Z,101186.75
2022-12-15T20:07:53.316Z,101185.56
2022-12-15T20:10:31.307Z,101182.78
2022-12-15T20:13:00.039Z,101187.00
2022-12-15T20:15:26.772Z,101181.16
2022-12-15T20:17:57.265Z,101183.38
2022-12-15T20:20:26.098Z,101180.75
2022-12-15T20:22:55.799Z,101183.97
2022-12-15T20:25:31.416Z,101187.59
2022-12-15T20:28:01.042Z,101190.00
2022-12-15T20:30:35.325Z,101190.78
2022-12-15T20:33:04.065Z,101187.00
2022-12-15T20:35:33.323Z,101186.16
2022-12-15T20:38:02.516Z,101183.34
2022-12-15T20:40:30.927Z,101191.19
2022-12-15T20:42:57.904Z,101193.81
2022-12-15T20:45:26.790Z,101202.69
2022-12-15T20:47:55.941Z,101204.28
2022-12-15T20:50:24.643Z,101207.28
2022-12-15T20:52:52.054Z,101204.88
2022-12-15T20:55:19.490Z,101204.28
2022-12-15T20:57:46.397Z,101206.06
2022-12-15T21:00:13.502Z,101207.44
2022-12-15T21:02:41.364Z,101205.84
2022-12-15T21:05:11.834Z,101203.84
2022-12-15T21:07:38.386Z,101203.47
2022-12-15T21:10:05.199Z,101201.50
2022-12-15T21:12:31.784Z,101198.69
2022-12-15T21:14:58.417Z,101192.06
2022-12-15T21:17:26.313Z,101191.88
2022-12-15T21:19:53.101Z,101192.69
2022-12-15T21:22:27.359Z,101198.56
2022-12-15T21:24:56.752Z,101194.16
2022-12-15T21:27:23.281Z,101201.81
2022-12-15T21:29:52.584Z,101196.41
2022-12-15T21:32:20.489Z,101198.03
2022-12-15T21:34:47.097Z,101201.03
2022-12-15T21:37:25.480Z,101199.25
2022-12-15T21:39:52.416Z,101198.28
2022-12-15T21:42:21.142Z,101204.72
2022-12-15T21:44:48.416Z,101216.78
2022-12-15T21:47:51.896Z,101205.53
2022-12-15T21:50:19.474Z,101207.75
2022-12-15T21:52:47.124Z,101222.03
2022-12-15T21:55:23.427Z,101216.41
2022-12-15T21:57:50.107Z,101209.16
2022-12-15T22:00:19.656Z,101210.97
2022-12-15T22:02:48.026Z,101214.41
2022-12-15T22:05:22.171Z,101217.00
2022-12-15T22:07:49.814Z,101225.84
2022-12-15T22:10:17.616Z,101220.63
2022-12-15T22:12:55.905Z,101216.41
2022-12-15T22:15:26.265Z,101226.25
2022-12-15T22:17:52.875Z,101224.06
2022-12-15T22:20:22.110Z,101231.88
2022-12-15T22:22:49.413Z,101222.63
2022-12-15T22:25:21.845Z,101230.47
2022-12-15T22:27:48.595Z,101228.25
2022-12-15T22:30:20.741Z,101228.25
2022-12-15T22:32:47.568Z,101229.25
2022-12-15T22:35:19.807Z,101232.09
2022-12-15T22:37:47.410Z,101230.47
2022-12-15T22:40:14.977Z,101227.84
2022-12-15T22:42:45.329Z,101227.06
2022-12-15T22:45:17.952Z,101225.66
2022-12-15T22:47:47.183Z,101234.28
2022-12-15T22:50:21.196Z,101234.47
2022-12-15T22:52:48.188Z,101234.66
2022-12-15T22:55:19.286Z,101238.09
2022-12-15T22:57:50.193Z,101239.09
2022-12-15T23:00:17.542Z,101232.28
2022-12-15T23:02:46.637Z,101230.84
2022-12-15T23:05:16.921Z,101230.25
2022-12-15T23:07:44.899Z,101227.06
2022-12-15T23:10:32.980Z,101221.22
2022-12-15T23:12:59.613Z,101222.81
2022-12-15T23:15:51.437Z,101222.59
2022-12-15T23:18:18.628Z,101233.63
2022-12-15T23:20:45.599Z,101227.22
2022-12-15T23:23:12.438Z,101240.66
2022-12-15T23:25:39.057Z,101238.44
2022-12-15T23:28:05.586Z,101235.44
2022-12-15T23:30:32.732Z,101229.81
2022-12-15T23:32:59.885Z,101223.19
2022-12-15T23:35:26.616Z,101221.75
2022-12-15T23:37:53.578Z,101228.97
2022-12-15T23:40:22.434Z,101232.78
2022-12-15T23:42:50.507Z,101236.41
2022-12-15T23:45:18.185Z,101238.41
2022-12-15T23:47:44.895Z,101239.78
2022-12-15T23:50:11.714Z,101240.16
2022-12-15T23:52:38.552Z,101237.53
2022-12-15T23:55:08.037Z,101238.13
2022-12-15T23:57:35.045Z,101247.16
